createdAt,value
2017-04-10T08:16:06.128Z,17.52
2017-04-10T08:21:06.082Z,17.18
2017-04-10T08:26:05.986Z,17.3
2017-04-10T08:31:05.909Z,17.94
2017-04-10T08:36:05.540Z,18.71
2017-04-10T08:41:05.754Z,18.44
2017-04-10T08:46:05.710Z,18.57
2017-04-10T08:51:05.630Z,24.36
2017-04-10T08:56:05.250Z,25
2017-04-10T09:01:05.502Z,23.03
2017-04-10T09:06:05.452Z,29.39
2017-04-10T09:11:05.410Z,30.34
2017-04-10T09:16:05.354Z,27.69
2017-04-10T09:21:05.312Z,32.15
2017-04-10T09:26:04.971Z,34.39
2017-04-10T09:31:05.222Z,28.86
2017-04-10T09:36:04.873Z,25.66
2017-04-10T09:41:04.872Z,25.38
2017-04-10T09:46:05.065Z,34.51
2017-04-10T09:51:04.753Z,29.47
2017-04-10T09:56:04.661Z,26.45
2017-04-10T10:01:04.938Z,29.42
2017-04-10T10:06:04.857Z,31.43
2017-04-10T10:11:04.820Z,32.72
2017-04-10T10:16:04.766Z,32.1
2017-04-10T10:21:04.747Z,30.24
2017-04-10T10:26:04.675Z,29.89
2017-04-10T10:31:04.643Z,27.31
2017-04-10T10:36:04.660Z,26.89
2017-04-10T10:41:04.521Z,27.75
2017-04-10T10:46:04.155Z,29.28
2017-04-10T10:51:04.408Z,30.28
2017-04-10T10:56:04.419Z,29.92
2017-04-10T11:01:04.321Z,29.38
2017-04-10T11:06:04.311Z,32.87
2017-04-10T11:11:04.224Z,30.16
2017-04-10T11:16:04.191Z,29.06
2017-04-10T11:21:04.123Z,29.45
2017-04-10T11:26:04.068Z,27.87
2017-04-10T11:31:04.056Z,27.34
2017-04-10T11:36:03.964Z,27.24
2017-04-10T11:41:03.919Z,26.41
2017-04-10T11:46:03.877Z,26.54
2017-04-10T11:51:03.819Z,26.19
2017-04-10T11:56:03.788Z,26.49
2017-04-10T12:01:03.731Z,25.99
2017-04-10T12:06:03.698Z,26.01
2017-04-10T12:11:03.335Z,26.09
2017-04-10T12:16:03.600Z,25.88
2017-04-10T12:21:03.544Z,25.67
2017-04-10T12:26:03.498Z,25.07
2017-04-10T12:31:03.453Z,25.05
2017-04-10T12:36:03.422Z,25.04
2017-04-10T12:41:03.431Z,25.56
2017-04-10T12:46:03.334Z,26.06
2017-04-10T12:51:03.359Z,25.17
2017-04-10T12:56:03.333Z,25.17
2017-04-10T13:01:03.335Z,25.38
2017-04-10T13:06:03.304Z,25.39
2017-04-10T13:11:03.294Z,25.52
2017-04-10T13:16:03.284Z,25.48
2017-04-10T13:21:03.010Z,25.41
2017-04-10T13:26:02.956Z,25.11
2017-04-10T13:31:03.266Z,24.49
2017-04-10T13:36:03.240Z,24.63
2017-04-10T13:41:03.249Z,24
2017-04-10T13:46:03.229Z,23.84
2017-04-10T13:51:03.211Z,24.33
2017-04-10T13:56:02.904Z,24.3
2017-04-10T14:01:03.176Z,24.14
2017-04-10T14:06:03.125Z,24.24
2017-04-10T14:11:03.093Z,23.93
2017-04-10T14:16:03.060Z,23.67
2017-04-10T14:21:03.081Z,23.38
2017-04-10T14:26:03.044Z,23.07
2017-04-10T14:31:03.044Z,22.49
2017-04-10T14:36:02.721Z,21.96
2017-04-10T14:41:03.095Z,21.68
2017-04-10T14:46:03.038Z,21.15
2017-04-10T14:51:02.997Z,20.76
2017-04-10T14:56:03.224Z,20.6
2017-04-10T15:01:02.972Z,20.22
2017-04-10T15:06:02.931Z,20
2017-04-10T15:11:02.928Z,19.92
2017-04-10T15:16:02.554Z,19.67
2017-04-10T15:21:02.839Z,19.46
2017-04-10T15:26:02.824Z,19.28
2017-04-10T15:31:02.826Z,19.25
2017-04-10T15:36:02.763Z,19.17
2017-04-10T15:41:02.451Z,19.13
2017-04-10T15:46:02.772Z,18.94
2017-04-10T15:51:02.744Z,18.96
2017-04-10T15:56:02.673Z,18.71
2017-04-10T16:01:02.732Z,18.56
2017-04-10T16:06:02.798Z,18.41
2017-04-10T16:11:02.500Z,18.26
2017-04-10T16:16:02.433Z,18.41
2017-04-10T16:21:02.362Z,18.5
2017-04-10T16:26:02.297Z,18.45
2017-04-10T16:31:01.934Z,18.56
2017-04-10T16:36:02.179Z,18.45
2017-04-10T16:41:16.688Z,18.44
2017-04-10T16:46:02.030Z,18.44
2017-04-10T16:51:01.974Z,18.44
2017-04-10T16:56:01.921Z,18.29
2017-04-10T17:01:01.861Z,18.38
2017-04-10T17:06:01.766Z,18.41
2017-04-10T17:11:01.778Z,18.32
2017-04-10T17:16:01.627Z,18.31
2017-04-10T17:21:01.565Z,18.23
2017-04-10T17:26:01.490Z,18.14
2017-04-10T17:31:01.439Z,18.08
2017-04-10T17:36:01.365Z,18.02
2017-04-10T17:41:01.314Z,17.94
2017-04-10T17:46:01.283Z,17.94
2017-04-10T17:51:01.415Z,17.98
2017-04-10T17:56:01.098Z,17.86
2017-04-10T18:01:01.039Z,17.9
2017-04-10T18:06:00.660Z,17.9
2017-04-10T18:11:00.912Z,17.77
2017-04-10T18:16:00.887Z,17.79
2017-04-10T18:21:00.821Z,17.79
2017-04-10T18:26:00.945Z,17.77
2017-04-10T18:31:00.631Z,17.65
2017-04-10T18:36:00.576Z,17.54
2017-04-10T18:41:00.524Z,17.54
2017-04-10T18:46:00.434Z,17.4
2017-04-10T18:51:00.368Z,17.35
2017-04-10T18:56:00.320Z,17.09
2017-04-10T19:01:00.240Z,17.13
2017-04-10T19:06:00.167Z,17.06
2017-04-10T19:11:00.091Z,16.81
2017-04-10T19:15:59.729Z,16.76
2017-04-10T19:20:59.972Z,16.7
2017-04-10T19:25:59.877Z,16.58
2017-04-10T19:30:59.815Z,16.37
2017-04-10T19:35:59.743Z,16.33
2017-04-10T19:40:59.679Z,16.3
2017-04-10T19:45:59.588Z,16.25
2017-04-10T19:50:59.527Z,16.1
2017-04-10T19:55:59.505Z,16.06
2017-04-10T20:00:59.475Z,15.93
2017-04-10T20:05:59.314Z,15.88
2017-04-10T20:10:59.252Z,15.75
2017-04-10T20:15:59.144Z,15.7
2017-04-10T20:20:59.077Z,15.62
2017-04-10T20:25:59.022Z,15.49
2017-04-10T20:30:58.319Z,15.49
2017-04-10T20:35:58.846Z,15.41
2017-04-10T20:40:58.753Z,15.33
2017-04-10T20:45:58.390Z,15.27
2017-04-10T20:50:58.627Z,15.15
2017-04-10T20:55:58.657Z,15.19
2017-04-10T21:00:58.489Z,15.1
2017-04-10T21:05:58.423Z,15
2017-04-10T21:10:58.307Z,15
2017-04-10T21:15:58.230Z,14.89
